createdAt,value
2023-05-05T00:00:27.256Z,60.53
2023-05-05T00:01:27.264Z,60.58
2023-05-05T00:02:27.460Z,60.67
2023-05-05T00:03:28.070Z,60.66
2023-05-05T00:04:27.348Z,60.76
2023-05-05T00:05:27.340Z,60.81
2023-05-05T00:06:27.391Z,60.76
2023-05-05T00:07:27.562Z,60.68
2023-05-05T00:08:27.559Z,60.89
2023-05-05T00:09:27.611Z,60.79
2023-05-05T00:10:28.597Z,60.97
2023-05-05T00:11:27.755Z,61.05
2023-05-05T00:12:27.803Z,61.07
2023-05-05T00:13:27.854Z,61.26
2023-05-05T00:14:27.919Z,61.46
2023-05-05T00:15:28.020Z,61.38
2023-05-05T00:16:28.126Z,61.47
2023-05-05T00:17:28.155Z,61.60
2023-05-05T00:18:30.042Z,61.49
2023-05-05T00:19:28.271Z,61.27
2023-05-05T00:20:28.385Z,61.40
2023-05-05T00:21:28.482Z,61.49
2023-05-05T00:22:28.531Z,61.64
2023-05-05T00:23:29.571Z,61.77
2023-05-05T00:24:28.618Z,61.85
2023-05-05T00:25:28.694Z,61.73
2023-05-05T00:26:29.494Z,61.71
2023-05-05T00:27:28.824Z,61.52
2023-05-05T00:28:28.796Z,61.45
2023-05-05T00:29:29.539Z,61.36
2023-05-05T00:30:28.956Z,61.24
2023-05-05T00:31:29.685Z,61.37
2023-05-05T00:32:28.942Z,61.34
2023-05-05T00:33:28.906Z,61.48
2023-05-05T00:34:28.968Z,61.54
2023-05-05T00:35:28.923Z,61.73
2023-05-05T00:36:28.945Z,61.66
2023-05-05T00:37:28.958Z,61.60
2023-05-05T00:38:29.042Z,61.58
2023-05-05T00:39:29.003Z,61.86
2023-05-05T00:40:29.023Z,61.82
2023-05-05T00:41:30.146Z,61.66
2023-05-05T00:42:29.099Z,61.70
2023-05-05T00:43:29.074Z,61.52
2023-05-05T00:44:29.109Z,61.54
2023-05-05T00:45:29.204Z,61.58
2023-05-05T00:46:29.250Z,61.49
2023-05-05T00:47:29.347Z,61.46
2023-05-05T00:48:29.220Z,61.63
2023-05-05T00:49:29.319Z,61.65
2023-05-05T00:50:29.356Z,61.83
2023-05-05T00:51:30.363Z,61.60
2023-05-05T00:52:29.263Z,61.70
2023-05-05T00:53:30.086Z,62.16
2023-05-05T00:54:30.130Z,62.28
2023-05-05T00:55:30.110Z,62.29
2023-05-05T00:56:29.479Z,62.17
2023-05-05T00:57:29.540Z,62.17
2023-05-05T00:58:30.515Z,62.04
2023-05-05T00:59:29.674Z,61.98
2023-05-05T01:00:29.608Z,61.99
2023-05-05T01:01:30.537Z,61.99
2023-05-05T01:02:30.119Z,62.25
2023-05-05T01:03:29.895Z,62.45
2023-05-05T01:04:36.515Z,62.59
2023-05-05T01:05:29.855Z,62.43
2023-05-05T01:06:29.893Z,62.36
2023-05-05T01:07:29.892Z,62.20
2023-05-05T01:08:31.636Z,61.99
2023-05-05T01:09:29.896Z,61.89
2023-05-05T01:10:29.942Z,61.77
2023-05-05T01:11:29.915Z,61.67
2023-05-05T01:12:30.531Z,61.70
2023-05-05T01:13:31.555Z,61.78
2023-05-05T01:14:29.995Z,61.76
2023-05-05T01:15:29.999Z,61.87
2023-05-05T01:16:30.110Z,61.86
2023-05-05T01:17:30.085Z,61.86
2023-05-05T01:18:30.093Z,61.92
2023-05-05T01:19:30.086Z,62.11
2023-05-05T01:20:30.126Z,61.98
2023-05-05T01:21:31.044Z,61.89
2023-05-05T01:22:30.484Z,61.86
2023-05-05T01:23:30.232Z,61.90
2023-05-05T01:24:30.196Z,62.26
2023-05-05T01:25:30.354Z,62.13
2023-05-05T01:26:30.439Z,62.18
2023-05-05T01:27:30.318Z,62.21
2023-05-05T01:28:30.451Z,62.20
2023-05-05T01:29:35.126Z,62.09
2023-05-05T01:30:30.433Z,62.04
2023-05-05T01:31:30.579Z,62.01
2023-05-05T01:32:30.916Z,61.88
2023-05-05T01:33:31.054Z,62.10
2023-05-05T01:34:30.600Z,61.94
2023-05-05T01:35:31.605Z,61.89
2023-05-05T01:36:30.527Z,61.77
2023-05-05T01:37:30.663Z,61.69
2023-05-05T01:38:31.567Z,61.72
2023-05-05T01:39:30.627Z,61.92
2023-05-05T01:40:31.617Z,61.98
2023-05-05T01:41:30.684Z,61.72
2023-05-05T01:42:30.819Z,61.90
2023-05-05T01:43:30.699Z,61.93
2023-05-05T01:44:31.578Z,61.89
2023-05-05T01:45:30.814Z,61.89
2023-05-05T01:46:30.700Z,61.91
2023-05-05T01:47:30.809Z,61.92
2023-05-05T01:48:31.523Z,61.93
2023-05-05T01:49:32.520Z,62.14
2023-05-05T01:50:31.501Z,62.24
2023-05-05T01:51:31.052Z,62.29
2023-05-05T01:52:31.117Z,62.28
2023-05-05T01:53:31.341Z,62.21
2023-05-05T01:54:31.171Z,62.06
2023-05-05T01:55:31.387Z,61.96
2023-05-05T01:56:31.174Z,61.98
2023-05-05T01:57:31.352Z,62.10
2023-05-05T01:58:31.400Z,62.28
2023-05-05T01:59:31.501Z,62.18
2023-05-05T02:00:33.030Z,62.10
2023-05-05T02:01:31.595Z,62.19
2023-05-05T02:02:31.614Z,62.44
2023-05-05T02:03:31.510Z,62.33
2023-05-05T02:04:31.583Z,62.44
2023-05-05T02:05:31.527Z,62.64
2023-05-05T02:06:31.781Z,62.74
2023-05-05T02:07:31.574Z,62.75
2023-05-05T02:08:31.599Z,63.00
2023-05-05T02:09:31.664Z,62.99
2023-05-05T02:10:31.676Z,62.88
2023-05-05T02:11:32.523Z,62.90
2023-05-05T02:12:31.888Z,62.93
2023-05-05T02:13:31.826Z,63.22
2023-05-05T02:14:31.908Z,63.15
2023-05-05T02:15:31.969Z,62.97
2023-05-05T02:16:33.015Z,63.22
2023-05-05T02:17:32.163Z,63.36
2023-05-05T02:18:32.139Z,63.52
2023-05-05T02:19:32.301Z,63.43
2023-05-05T02:20:33.096Z,63.43
2023-05-05T02:21:33.017Z,63.38
2023-05-05T02:22:32.421Z,63.26
2023-05-05T02:23:34.457Z,63.12
2023-05-05T02:24:33.532Z,63.09
2023-05-05T02:25:32.586Z,63.05
2023-05-05T02:26:32.709Z,63.13
2023-05-05T02:27:33.070Z,63.05
2023-05-05T02:28:33.531Z,63.04
2023-05-05T02:29:32.856Z,62.98
2023-05-05T02:30:33.600Z,62.84
2023-05-05T02:31:33.012Z,62.88
2023-05-05T02:32:33.040Z,62.81
2023-05-05T02:33:33.278Z,62.87
2023-05-05T02:34:33.103Z,62.87
2023-05-05T02:35:33.194Z,62.75
2023-05-05T02:36:33.256Z,62.77
2023-05-05T02:37:33.192Z,62.85
2023-05-05T02:38:33.228Z,62.75
2023-05-05T02:39:33.283Z,62.84
2023-05-05T02:40:33.308Z,62.87
2023-05-05T02:41:33.432Z,62.90
2023-05-05T02:42:33.611Z,62.85
2023-05-05T02:43:33.523Z,62.68
2023-05-05T02:44:33.521Z,62.76
2023-05-05T02:45:35.522Z,62.96
2023-05-05T02:46:33.650Z,63.11
2023-05-05T02:47:33.645Z,63.05
2023-05-05T02:48:34.039Z,63.10
2023-05-05T02:49:40.745Z,63.14
2023-05-05T02:50:33.618Z,63.10
2023-05-05T02:51:33.782Z,63.21
2023-05-05T02:52:33.676Z,63.05
2023-05-05T02:53:33.686Z,62.84
2023-05-05T02:54:33.769Z,62.65
2023-05-05T02:55:33.781Z,62.53
2023-05-05T02:56:33.806Z,62.68
2023-05-05T02:57:33.825Z,62.67
2023-05-05T02:58:33.857Z,62.77
2023-05-05T02:59:33.830Z,62.86
2023-05-05T03:00:33.892Z,62.89
2023-05-05T03:01:33.956Z,62.87
2023-05-05T03:02:34.016Z,62.83
2023-05-05T03:03:34.093Z,62.79
2023-05-05T03:04:34.017Z,62.70
2023-05-05T03:05:34.109Z,62.72
2023-05-05T03:06:34.114Z,62.78
2023-05-05T03:07:34.116Z,62.85
2023-05-05T03:08:35.012Z,62.79
2023-05-05T03:09:34.255Z,62.76
2023-05-05T03:10:34.215Z,62.74
2023-05-05T03:11:34.228Z,62.79
2023-05-05T03:12:34.312Z,62.78
2023-05-05T03:13:34.565Z,62.71
2023-05-05T03:14:34.342Z,62.93
2023-05-05T03:15:34.364Z,62.94
2023-05-05T03:16:34.478Z,62.87
2023-05-05T03:17:34.441Z,62.97
2023-05-05T03:18:34.513Z,62.84
2023-05-05T03:19:35.024Z,62.77
2023-05-05T03:20:34.573Z,62.96
2023-05-05T03:21:34.622Z,63.15
2023-05-05T03:22:34.776Z,63.20
2023-05-05T03:23:34.865Z,63.29
2023-05-05T03:24:34.938Z,63.25
2023-05-05T03:25:34.930Z,63.06
2023-05-05T03:26:36.536Z,62.98
2023-05-05T03:27:35.036Z,63.03
2023-05-05T03:28:35.076Z,63.13
2023-05-05T03:29:35.206Z,63.27
2023-05-05T03:30:36.136Z,63.20
2023-05-05T03:31:37.082Z,63.17
2023-05-05T03:32:36.046Z,63.24
2023-05-05T03:33:35.389Z,63.19
2023-05-05T03:34:36.685Z,63.13
2023-05-05T03:35:35.593Z,63.11
2023-05-05T03:36:35.664Z,63.20
2023-05-05T03:37:35.736Z,63.24
2023-05-05T03:38:35.838Z,63.30
2023-05-05T03:39:35.920Z,63.17
2023-05-05T03:40:43.692Z,63.37
2023-05-05T03:41:37.021Z,63.44
2023-05-05T03:42:37.207Z,63.39
2023-05-05T03:43:36.078Z,63.29
2023-05-05T03:44:36.117Z,63.31
2023-05-05T03:45:36.206Z,63.35
2023-05-05T03:46:36.241Z,63.44
2023-05-05T03:47:36.351Z,63.40
2023-05-05T03:48:36.299Z,63.48
2023-05-05T03:49:36.345Z,63.39
2023-05-05T03:50:36.402Z,63.37
2023-05-05T03:51:37.186Z,63.33
2023-05-05T03:52:36.547Z,63.42
2023-05-05T03:53:36.514Z,63.31
2023-05-05T03:54:36.549Z,63.24
2023-05-05T03:55:37.635Z,63.15
2023-05-05T03:56:36.637Z,63.19
2023-05-05T03:57:36.721Z,63.28
2023-05-05T03:58:36.785Z,63.15
2023-05-05T03:59:36.817Z,62.96
2023-05-05T04:00:36.883Z,62.93
2023-05-05T04:01:36.935Z,63.01
2023-05-05T04:02:37.008Z,63.00
2023-05-05T04:03:37.058Z,63.01
2023-05-05T04:04:37.099Z,62.84
2023-05-05T04:05:37.014Z,62.71
2023-05-05T04:06:37.009Z,62.57
2023-05-05T04:07:37.039Z,62.59
2023-05-05T04:08:37.159Z,62.41
2023-05-05T04:09:37.114Z,62.48
2023-05-05T04:10:37.128Z,62.56
2023-05-05T04:11:37.276Z,62.48
2023-05-05T04:12:37.251Z,62.43
2023-05-05T04:13:37.233Z,62.38
2023-05-05T04:14:37.258Z,62.29
2023-05-05T04:15:37.349Z,62.25
2023-05-05T04:16:37.518Z,62.28
2023-05-05T04:17:37.507Z,62.20
2023-05-05T04:18:37.545Z,62.14
2023-05-05T04:19:38.535Z,62.12
2023-05-05T04:20:37.682Z,62.01
2023-05-05T04:21:37.699Z,61.89
2023-05-05T04:22:37.730Z,62.06
2023-05-05T04:23:37.799Z,62.03
2023-05-05T04:24:37.830Z,62.09
2023-05-05T04:25:37.870Z,61.92
2023-05-05T04:26:37.904Z,61.78
2023-05-05T04:27:38.084Z,61.72
2023-05-05T04:28:38.030Z,61.54
2023-05-05T04:29:38.103Z,61.43
2023-05-05T04:30:38.214Z,61.39
2023-05-05T04:31:38.370Z,61.28
2023-05-05T04:32:38.385Z,61.20
2023-05-05T04:33:38.369Z,61.21
2023-05-05T04:34:38.391Z,61.05
2023-05-05T04:35:38.396Z,60.82
2023-05-05T04:36:38.492Z,60.65
2023-05-05T04:37:38.502Z,60.47
2023-05-05T04:38:38.559Z,60.32
2023-05-05T04:39:38.614Z,60.26
2023-05-05T04:40:38.685Z,60.11
2023-05-05T04:41:38.811Z,59.95
2023-05-05T04:42:38.823Z,59.81
2023-05-05T04:43:38.876Z,59.52
2023-05-05T04:44:38.929Z,59.11
2023-05-05T04:45:38.889Z,58.94
2023-05-05T04:46:38.968Z,58.97
2023-05-05T04:47:39.077Z,59.09
2023-05-05T04:48:39.571Z,59.16
2023-05-05T04:49:39.133Z,59.10
2023-05-05T04:50:39.208Z,59.12
2023-05-05T04:51:39.280Z,59.09
2023-05-05T04:52:39.355Z,58.91
2023-05-05T04:53:39.358Z,58.74
2023-05-05T04:54:39.423Z,58.66
2023-05-05T04:55:39.422Z,58.42
2023-05-05T04:56:39.458Z,58.41
2023-05-05T04:57:39.497Z,58.64
2023-05-05T04:58:39.584Z,58.34
2023-05-05T04:59:39.703Z,58.29
2023-05-05T05:00:39.669Z,58.07
2023-05-05T05:01:39.744Z,57.69
2023-05-05T05:02:39.850Z,57.69
2023-05-05T05:03:39.846Z,57.15
2023-05-05T05:04:39.842Z,56.80
2023-05-05T05:05:39.879Z,56.65
2023-05-05T05:06:39.840Z,56.30
2023-05-05T05:07:39.921Z,56.17
2023-05-05T05:08:39.880Z,56.09
2023-05-05T05:09:39.847Z,56.12
2023-05-05T05:10:39.862Z,56.03
2023-05-05T05:11:39.826Z,55.81
2023-05-05T05:12:39.820Z,55.81
2023-05-05T05:13:39.824Z,55.31
2023-05-05T05:14:39.843Z,55.01
2023-05-05T05:15:39.790Z,55.00
2023-05-05T05:16:39.838Z,55.03
2023-05-05T05:17:39.835Z,54.85
2023-05-05T05:18:39.794Z,54.86
2023-05-05T05:19:39.799Z,54.78
2023-05-05T05:20:39.797Z,54.78
2023-05-05T05:21:39.777Z,54.77
2023-05-05T05:22:39.854Z,54.90
2023-05-05T05:23:40.066Z,54.93
2023-05-05T05:24:39.816Z,54.89
2023-05-05T05:25:39.735Z,54.62
2023-05-05T05:26:39.807Z,54.65
2023-05-05T05:27:39.809Z,54.60
2023-05-05T05:28:39.848Z,54.78
2023-05-05T05:29:40.089Z,54.64
2023-05-05T05:30:40.698Z,54.54
2023-05-05T05:31:39.932Z,54.29
2023-05-05T05:32:40.087Z,54.22
2023-05-05T05:33:39.938Z,54.73
2023-05-05T05:34:39.906Z,54.99
2023-05-05T05:35:40.544Z,55.03
2023-05-05T05:36:39.957Z,54.88
2023-05-05T05:37:40.012Z,54.62
2023-05-05T05:38:40.031Z,54.59
2023-05-05T05:39:41.926Z,54.50
2023-05-05T05:40:39.964Z,54.61
2023-05-05T05:41:40.550Z,55.00
2023-05-05T05:42:39.948Z,55.20
2023-05-05T05:43:39.901Z,55.34
2023-05-05T05:44:39.933Z,55.28
2023-05-05T05:45:39.884Z,55.50
2023-05-05T05:46:40.006Z,55.35
2023-05-05T05:47:39.880Z,55.38
2023-05-05T05:48:39.911Z,55.58
2023-05-05T05:49:39.816Z,55.67
2023-05-05T05:50:39.812Z,55.93
2023-05-05T05:51:39.814Z,55.99
2023-05-05T05:52:39.835Z,55.98
2023-05-05T05:53:39.794Z,56.12
2023-05-05T05:54:39.863Z,56.09
2023-05-05T05:55:39.786Z,56.05
2023-05-05T05:56:39.796Z,55.78
2023-05-05T05:57:39.841Z,55.66
2023-05-05T05:58:41.978Z,55.82
2023-05-05T05:59:39.872Z,55.95
2023-05-05T06:00:39.931Z,56.01
2023-05-05T06:01:40.002Z,55.76
2023-05-05T06:02:40.072Z,55.86
2023-05-05T06:03:40.003Z,55.93
2023-05-05T06:04:39.960Z,55.91
2023-05-05T06:05:39.986Z,55.90
2023-05-05T06:06:39.935Z,55.69
2023-05-05T06:07:39.897Z,55.55
2023-05-05T06:08:39.870Z,55.60
2023-05-05T06:09:39.858Z,55.57
2023-05-05T06:10:39.858Z,55.57
2023-05-05T06:11:39.889Z,55.61
2023-05-05T06:12:39.803Z,55.68
2023-05-05T06:13:39.819Z,55.89
2023-05-05T06:14:39.814Z,56.00
2023-05-05T06:15:39.889Z,56.01
2023-05-05T06:16:39.864Z,55.95
2023-05-05T06:17:39.951Z,55.95
2023-05-05T06:18:40.060Z,55.86
2023-05-05T06:19:39.977Z,55.78
2023-05-05T06:20:40.004Z,55.86
2023-05-05T06:21:40.001Z,55.78
2023-05-05T06:22:39.972Z,56.06
2023-05-05T06:23:40.069Z,56.11
2023-05-05T06:24:39.980Z,56.10
2023-05-05T06:25:39.935Z,56.16
2023-05-05T06:26:40.021Z,56.02
2023-05-05T06:27:39.913Z,55.55
2023-05-05T06:28:39.877Z,54.86
2023-05-05T06:29:39.863Z,54.38
2023-05-05T06:30:39.831Z,53.93
2023-05-05T06:31:39.826Z,53.74
2023-05-05T06:32:39.774Z,53.53
2023-05-05T06:33:39.730Z,53.53
2023-05-05T06:34:39.660Z,53.65
2023-05-05T06:35:40.585Z,54.06
2023-05-05T06:36:39.654Z,53.98
2023-05-05T06:37:40.574Z,53.69
2023-05-05T06:38:39.627Z,53.44
2023-05-05T06:39:39.641Z,52.88
2023-05-05T06:40:40.085Z,52.39
2023-05-05T06:41:39.625Z,51.98
2023-05-05T06:42:39.611Z,51.77
2023-05-05T06:43:39.577Z,51.63
2023-05-05T06:44:39.589Z,51.46
2023-05-05T06:45:39.488Z,51.13
2023-05-05T06:46:40.221Z,50.50
2023-05-05T06:47:40.609Z,50.42
2023-05-05T06:48:39.443Z,50.84
2023-05-05T06:49:39.421Z,51.19
2023-05-05T06:50:39.336Z,51.47
2023-05-05T06:51:41.056Z,51.37
2023-05-05T06:52:39.265Z,51.39
2023-05-05T06:53:39.306Z,51.84
2023-05-05T06:54:39.117Z,52.29
2023-05-05T06:55:39.067Z,52.72
2023-05-05T06:56:39.038Z,52.23
2023-05-05T06:57:38.947Z,52.18
2023-05-05T06:58:38.981Z,52.96
2023-05-05T06:59:38.881Z,52.98
2023-05-05T07:00:38.865Z,52.85
2023-05-05T07:01:38.832Z,52.64
2023-05-05T07:02:38.982Z,52.67
2023-05-05T07:03:38.721Z,52.60
2023-05-05T07:04:38.623Z,52.56
2023-05-05T07:05:38.597Z,52.23
2023-05-05T07:06:38.573Z,51.84
2023-05-05T07:07:38.492Z,51.63
2023-05-05T07:08:38.477Z,51.82
2023-05-05T07:09:38.461Z,51.99
2023-05-05T07:10:38.372Z,51.52
2023-05-05T07:11:38.515Z,51.17
2023-05-05T07:12:38.261Z,50.71
2023-05-05T07:13:38.193Z,50.19
2023-05-05T07:14:38.164Z,50.07
2023-05-05T07:15:38.082Z,50.09
2023-05-05T07:16:38.124Z,49.63
2023-05-05T07:17:37.985Z,48.47
2023-05-05T07:18:38.169Z,48.89
2023-05-05T07:19:37.826Z,48.95
2023-05-05T07:20:37.773Z,49.33
2023-05-05T07:21:37.723Z,49.07
2023-05-05T07:22:37.803Z,48.97
2023-05-05T07:23:37.551Z,48.94
2023-05-05T07:24:37.510Z,49.08
2023-05-05T07:25:37.478Z,48.97
2023-05-05T07:26:38.131Z,48.90
2023-05-05T07:27:37.312Z,48.92
2023-05-05T07:28:37.308Z,48.94
2023-05-05T07:29:37.261Z,49.13
2023-05-05T07:30:37.162Z,48.74
2023-05-05T07:31:37.139Z,48.14
2023-05-05T07:32:37.157Z,48.51
2023-05-05T07:33:37.126Z,48.62
2023-05-05T07:34:37.465Z,48.40
2023-05-05T07:35:37.628Z,47.68
2023-05-05T07:36:36.986Z,46.39
2023-05-05T07:37:36.997Z,45.90
2023-05-05T07:38:37.114Z,45.03
2023-05-05T07:39:37.495Z,45.25
2023-05-05T07:40:36.731Z,44.43
2023-05-05T07:41:36.771Z,42.94
2023-05-05T07:42:36.525Z,42.35
2023-05-05T07:43:36.460Z,41.90
2023-05-05T07:44:36.474Z,41.76
2023-05-05T07:45:36.320Z,41.35
2023-05-05T07:46:37.139Z,40.79
2023-05-05T07:47:36.091Z,41.51
2023-05-05T07:48:38.583Z,41.74
2023-05-05T07:49:36.134Z,41.55
2023-05-05T07:50:36.621Z,41.71
2023-05-05T07:51:35.964Z,42.05
2023-05-05T07:52:44.963Z,41.62
2023-05-05T07:53:36.796Z,40.75
2023-05-05T07:54:35.719Z,40.24
2023-05-05T07:55:35.595Z,39.81
2023-05-05T07:56:35.570Z,40.16
2023-05-05T07:57:36.449Z,40.02
2023-05-05T07:58:35.541Z,39.84
2023-05-05T07:59:35.165Z,38.43
2023-05-05T08:00:35.059Z,39.37
2023-05-05T08:01:34.933Z,39.12
2023-05-05T08:02:34.957Z,38.61
2023-05-05T08:03:34.983Z,38.34
2023-05-05T08:04:35.758Z,37.83
2023-05-05T08:05:34.552Z,37.74
2023-05-05T08:06:34.466Z,36.76
2023-05-05T08:07:34.324Z,36.85
2023-05-05T08:08:34.191Z,37.28
2023-05-05T08:09:34.054Z,37.21
2023-05-05T08:10:33.982Z,36.63
2023-05-05T08:11:33.897Z,35.89
2023-05-05T08:12:33.830Z,37.10
2023-05-05T08:13:34.899Z,38.31
2023-05-05T08:14:34.157Z,38.10
2023-05-05T08:15:33.400Z,37.88
2023-05-05T08:16:33.328Z,38.30
2023-05-05T08:17:33.222Z,38.68
2023-05-05T08:18:33.062Z,38.47
2023-05-05T08:19:32.959Z,38.27
2023-05-05T08:20:32.830Z,38.52
2023-05-05T08:21:33.608Z,38.68
2023-05-05T08:22:33.107Z,39.02
2023-05-05T08:23:32.677Z,38.96
2023-05-05T08:24:32.515Z,38.96
2023-05-05T08:25:32.269Z,38.56
2023-05-05T08:26:32.176Z,38.78
2023-05-05T08:27:32.242Z,38.44
2023-05-05T08:28:32.179Z,38.76
2023-05-05T08:29:32.163Z,38.51
2023-05-05T08:30:32.008Z,38.12
2023-05-05T08:31:31.829Z,36.93
2023-05-05T08:32:31.687Z,36.85
2023-05-05T08:33:31.602Z,36.75
2023-05-05T08:34:31.558Z,36.92
2023-05-05T08:35:31.400Z,35.74
2023-05-05T08:36:31.293Z,35.06
2023-05-05T08:37:31.168Z,35.04
2023-05-05T08:38:31.064Z,34.93
2023-05-05T08:39:31.207Z,34.72
2023-05-05T08:40:30.893Z,34.30
2023-05-05T08:41:30.700Z,34.34
2023-05-05T08:42:37.772Z,34.43
2023-05-05T08:43:31.471Z,34.27
2023-05-05T08:44:30.386Z,34.52
2023-05-05T08:45:30.646Z,33.53
2023-05-05T08:46:30.137Z,35.01
2023-05-05T08:47:30.020Z,33.77
2023-05-05T08:48:29.855Z,33.70
2023-05-05T08:49:30.116Z,34.56
2023-05-05T08:50:29.670Z,34.49
2023-05-05T08:51:29.472Z,34.53
2023-05-05T08:52:29.377Z,33.01
2023-05-05T08:53:29.206Z,32.51
2023-05-05T08:54:29.168Z,32.97
2023-05-05T08:55:28.969Z,33.00
2023-05-05T08:56:28.839Z,32.88
2023-05-05T08:57:28.676Z,33.27
2023-05-05T08:58:29.364Z,32.19
2023-05-05T08:59:28.710Z,32.39
2023-05-05T09:00:28.469Z,32.29
2023-05-05T09:01:29.226Z,33.67
2023-05-05T09:02:28.128Z,33.92
2023-05-05T09:03:27.980Z,34.00
2023-05-05T09:04:27.889Z,33.92
2023-05-05T09:05:27.696Z,34.20
2023-05-05T09:06:27.613Z,34.87
2023-05-05T09:07:27.453Z,34.06
2023-05-05T09:08:27.323Z,33.68
2023-05-05T09:09:27.319Z,33.80
2023-05-05T09:10:27.787Z,33.71
2023-05-05T09:11:26.978Z,33.12
2023-05-05T09:12:27.016Z,32.74
2023-05-05T09:13:27.644Z,32.77
2023-05-05T09:14:26.746Z,32.75
2023-05-05T09:15:26.772Z,33.77
2023-05-05T09:16:26.441Z,33.81
2023-05-05T09:17:26.383Z,34.33
2023-05-05T09:18:26.166Z,34.62
2023-05-05T09:19:26.046Z,34.45
2023-05-05T09:20:25.935Z,34.64
2023-05-05T09:21:25.853Z,34.82
2023-05-05T09:22:25.725Z,34.83
2023-05-05T09:23:25.702Z,34.50
2023-05-05T09:24:25.682Z,34.96
2023-05-05T09:25:25.403Z,34.93
2023-05-05T09:26:25.244Z,34.78
2023-05-05T09:27:25.138Z,34.61
2023-05-05T09:28:25.061Z,34.63
2023-05-05T09:29:25.374Z,34.07
2023-05-05T09:30:24.875Z,33.87
2023-05-05T09:31:24.828Z,33.13
2023-05-05T09:32:24.822Z,32.93
2023-05-05T09:33:24.661Z,32.05
2023-05-05T09:34:24.528Z,32.06
2023-05-05T09:35:24.566Z,32.02
2023-05-05T09:36:24.448Z,31.60
2023-05-05T09:37:24.333Z,31.19
2023-05-05T09:38:26.355Z,31.91
2023-05-05T09:39:24.364Z,31.83
2023-05-05T09:40:24.041Z,32.37
2023-05-05T09:41:23.858Z,32.41
2023-05-05T09:42:23.923Z,32.49
2023-05-05T09:43:24.134Z,32.43
2023-05-05T09:44:23.584Z,32.06
2023-05-05T09:45:24.159Z,31.96
2023-05-05T09:46:23.616Z,31.52
2023-05-05T09:47:29.593Z,31.84
2023-05-05T09:48:24.463Z,31.31
2023-05-05T09:49:23.329Z,30.94
2023-05-05T09:50:23.093Z,30.71
2023-05-05T09:51:22.998Z,31.80
2023-05-05T09:52:22.910Z,31.03
2023-05-05T09:53:22.749Z,32.51
2023-05-05T09:54:22.655Z,31.36
2023-05-05T09:55:23.128Z,31.94
2023-05-05T09:56:22.395Z,32.44
2023-05-05T09:57:25.177Z,31.36
2023-05-05T09:58:22.287Z,31.56
2023-05-05T09:59:22.190Z,30.43
2023-05-05T10:00:21.976Z,30.73
2023-05-05T10:01:21.846Z,30.79
2023-05-05T10:02:21.682Z,30.74
2023-05-05T10:03:22.160Z,31.22
2023-05-05T10:04:21.498Z,31.60
2023-05-05T10:05:21.460Z,31.18
2023-05-05T10:06:21.228Z,31.09
2023-05-05T10:07:21.114Z,30.82
2023-05-05T10:08:21.085Z,31.51
2023-05-05T10:09:22.048Z,31.49
2023-05-05T10:10:20.738Z,30.87
2023-05-05T10:11:20.604Z,29.71
2023-05-05T10:12:20.497Z,29.86
2023-05-05T10:13:20.472Z,29.47
2023-05-05T10:14:20.227Z,29.44
2023-05-05T10:15:20.433Z,29.65
2023-05-05T10:16:20.249Z,30.14
2023-05-05T10:17:20.738Z,30.51
2023-05-05T10:18:19.785Z,29.29
2023-05-05T10:19:20.176Z,29.65
2023-05-05T10:20:19.493Z,28.94
2023-05-05T10:21:20.236Z,28.67
2023-05-05T10:22:19.449Z,28.41
2023-05-05T10:23:19.043Z,28.36
2023-05-05T10:24:19.108Z,28.64
2023-05-05T10:25:18.799Z,29.21
2023-05-05T10:26:18.624Z,28.74
2023-05-05T10:27:18.665Z,27.62
2023-05-05T10:28:18.370Z,27.89
2023-05-05T10:29:18.242Z,29.02
2023-05-05T10:30:18.133Z,28.63
2023-05-05T10:31:25.748Z,27.80
2023-05-05T10:32:47.037Z,27.62
2023-05-05T10:33:30.373Z,28.37
2023-05-05T10:34:18.595Z,27.97
2023-05-05T10:35:17.436Z,28.00
2023-05-05T10:36:17.255Z,27.00
2023-05-05T10:37:17.716Z,26.35
2023-05-05T10:38:16.955Z,26.03
2023-05-05T10:39:17.764Z,26.49
2023-05-05T10:40:17.218Z,26.73
2023-05-05T10:41:16.526Z,26.50
2023-05-05T10:42:19.153Z,25.64
2023-05-05T10:43:16.289Z,25.32
2023-05-05T10:44:16.194Z,25.54
2023-05-05T10:45:16.294Z,25.82
2023-05-05T10:46:16.956Z,25.81
2023-05-05T10:47:16.165Z,26.25
2023-05-05T10:48:15.610Z,25.96
2023-05-05T10:49:16.458Z,25.00
2023-05-05T10:50:15.340Z,24.77
2023-05-05T10:51:21.145Z,25.08
2023-05-05T10:52:15.832Z,25.50
2023-05-05T10:53:14.733Z,25.88
2023-05-05T10:54:14.618Z,26.70
2023-05-05T10:55:14.389Z,25.58
2023-05-05T10:56:15.178Z,26.73
2023-05-05T10:57:14.113Z,25.74
2023-05-05T10:58:13.933Z,25.06
2023-05-05T10:59:14.661Z,25.17
2023-05-05T11:00:15.104Z,24.55
2023-05-05T11:01:13.589Z,24.49
2023-05-05T11:02:14.156Z,25.65
2023-05-05T11:03:13.366Z,25.01
2023-05-05T11:04:13.155Z,24.47
2023-05-05T11:05:12.981Z,24.30
2023-05-05T11:06:12.834Z,23.81
2023-05-05T11:07:15.000Z,24.23
2023-05-05T11:08:12.837Z,24.06
2023-05-05T11:09:12.566Z,23.89
2023-05-05T11:10:12.332Z,23.95
2023-05-05T11:11:12.141Z,25.06
2023-05-05T11:12:11.997Z,24.97
2023-05-05T11:13:11.872Z,24.82
2023-05-05T11:14:12.164Z,25.46
2023-05-05T11:15:11.530Z,25.32
2023-05-05T11:16:11.408Z,24.86
2023-05-05T11:17:11.249Z,24.68
2023-05-05T11:18:11.143Z,24.19
2023-05-05T11:19:11.706Z,23.31
2023-05-05T11:20:10.939Z,24.07
2023-05-05T11:21:10.683Z,24.22
2023-05-05T11:22:10.502Z,23.24
2023-05-05T11:23:10.370Z,23.63
2023-05-05T11:24:10.193Z,23.85
2023-05-05T11:25:10.060Z,22.95
2023-05-05T11:26:09.891Z,22.56
2023-05-05T11:27:09.714Z,22.61
2023-05-05T11:28:09.561Z,23.60
2023-05-05T11:29:09.448Z,22.57
2023-05-05T11:30:10.726Z,23.03
2023-05-05T11:31:09.105Z,24.45
2023-05-05T11:32:09.037Z,23.70
2023-05-05T11:33:08.795Z,24.06
2023-05-05T11:34:08.604Z,23.37
2023-05-05T11:35:08.714Z,22.05
2023-05-05T11:36:08.297Z,21.57
2023-05-05T11:37:08.157Z,21.13
2023-05-05T11:38:08.010Z,21.05
2023-05-05T11:39:07.868Z,21.64
2023-05-05T11:40:07.905Z,19.95
2023-05-05T11:41:07.613Z,20.97
2023-05-05T11:42:10.737Z,21.22
2023-05-05T11:43:07.249Z,21.80
2023-05-05T11:44:07.027Z,21.10
2023-05-05T11:45:06.855Z,20.12
2023-05-05T11:46:06.694Z,20.44
2023-05-05T11:47:06.526Z,21.23
2023-05-05T11:48:07.000Z,22.13
2023-05-05T11:49:06.176Z,21.20
2023-05-05T11:50:06.167Z,21.08
2023-05-05T11:51:05.819Z,21.69
2023-05-05T11:52:05.627Z,22.05
2023-05-05T11:53:05.455Z,22.20
2023-05-05T11:54:05.326Z,21.25
2023-05-05T11:55:05.193Z,21.69
2023-05-05T11:56:05.045Z,21.92
2023-05-05T11:57:05.069Z,21.46
2023-05-05T11:58:04.788Z,21.36
2023-05-05T11:59:04.709Z,21.42
2023-05-05T12:00:04.586Z,22.02
2023-05-05T12:01:04.481Z,22.16
2023-05-05T12:02:04.370Z,21.39
2023-05-05T12:03:04.354Z,21.10
2023-05-05T12:04:04.253Z,21.01
2023-05-05T12:05:04.052Z,21.47
2023-05-05T12:06:03.876Z,21.79
2023-05-05T12:07:03.710Z,21.91
2023-05-05T12:08:03.571Z,21.62
2023-05-05T12:09:03.516Z,21.87
2023-05-05T12:10:03.372Z,21.57
2023-05-05T12:11:03.259Z,21.79
2023-05-05T12:12:03.077Z,21.78
2023-05-05T12:13:02.982Z,21.77
2023-05-05T12:14:02.796Z,22.39
2023-05-05T12:15:02.664Z,21.88
2023-05-05T12:16:02.541Z,21.66
2023-05-05T12:17:02.348Z,21.70
2023-05-05T12:18:03.328Z,21.62
2023-05-05T12:19:02.166Z,21.45
2023-05-05T12:20:01.985Z,22.21
2023-05-05T12:21:01.991Z,22.72
2023-05-05T12:22:01.649Z,21.48
2023-05-05T12:23:01.521Z,21.71
2023-05-05T12:24:01.307Z,22.08
2023-05-05T12:25:01.144Z,21.63
2023-05-05T12:26:01.047Z,22.20
2023-05-05T12:27:00.778Z,22.97
2023-05-05T12:28:00.602Z,20.59
2023-05-05T12:29:00.522Z,20.62
2023-05-05T12:30:00.229Z,21.18
2023-05-05T12:31:00.227Z,22.60
2023-05-05T12:31:59.910Z,22.88
2023-05-05T12:32:59.788Z,22.64
2023-05-05T12:33:59.535Z,22.30
2023-05-05T12:34:59.380Z,21.82
2023-05-05T12:36:01.248Z,22.14
2023-05-05T12:36:59.203Z,21.44
2023-05-05T12:37:59.077Z,21.36
2023-05-05T12:38:58.938Z,21.61
2023-05-05T12:39:58.840Z,22.16
2023-05-05T12:40:59.789Z,21.61
2023-05-05T12:41:58.640Z,21.87
2023-05-05T12:42:58.537Z,22.55
2023-05-05T12:43:59.185Z,21.99
2023-05-05T12:44:59.804Z,21.77
2023-05-05T12:45:58.235Z,21.64
2023-05-05T12:46:58.073Z,21.80
2023-05-05T12:47:57.974Z,21.50
2023-05-05T12:48:57.818Z,22.15
2023-05-05T12:49:57.699Z,22.47
2023-05-05T12:50:57.684Z,22.32
2023-05-05T12:51:57.422Z,22.59